Time;durP1;ratioP1;P1;durP2;ratioP2;P2;SDS_P1;SDS_P2;PMS_P1;PMS_P2;Temp;Humidity;BMP_temperature;BMP_pressure;BME280_temperature;BME280_humidity;BME280_pressure;Samples;Min_cycle;Max_cycle;Signal;HPM_P1;HPM_P2
2023/08/01 00:00:02;;;;;;;5.80;3.90;;;;;;;17.60;84.84;94687.34;5011349;28;20262;-85
2023/08/01 00:02:28;;;;;;;6.07;3.78;;;;;;;17.64;84.58;94673.56;5020834;28;20200;-85
2023/08/01 00:04:53;;;;;;;6.00;3.95;;;;;;;17.61;84.85;94678.44;4994534;28;20675;-86
2023/08/01 00:07:18;;;;;;;8.38;4.18;;;;;;;17.46;85.58;94669.03;5018125;28;20218;-85
2023/08/01 00:09:43;;;;;;;5.07;3.67;;;;;;;17.40;86.08;94675.09;5027727;28;20583;-84
2023/08/01 00:12:09;;;;;;;5.40;4.07;;;;;;;17.52;85.94;94667.38;5031105;28;20175;-85
2023/08/01 00:14:36;;;;;;;7.22;4.15;;;;;;;17.48;86.00;94668.81;5024938;28;20182;-85
2023/08/01 00:17:01;;;;;;;5.47;3.88;;;;;;;17.33;86.52;94656.00;5000438;28;20193;-85
2023/08/01 00:19:27;;;;;;;6.32;4.32;;;;;;;17.29;87.75;94636.44;5024174;28;20582;-85
2023/08/01 00:21:52;;;;;;;5.68;4.15;;;;;;;17.34;87.21;94620.06;5032533;28;20174;-84
2023/08/01 00:24:18;;;;;;;6.03;4.20;;;;;;;17.19;87.41;94613.28;5024314;28;20201;-84
2023/08/01 00:26:43;;;;;;;6.10;4.35;;;;;;;17.20;87.65;94609.63;5017774;28;20320;-84
2023/08/01 00:29:08;;;;;;;5.00;4.25;;;;;;;17.34;86.61;94604.31;5028523;28;20210;-85
2023/08/01 00:31:34;;;;;;;5.35;3.97;;;;;;;17.25;86.91;94599.31;5012666;28;20198;-85
2023/08/01 00:33:59;;;;;;;6.40;4.28;;;;;;;17.13;87.49;94603.63;5017369;28;20298;-85
2023/08/01 00:36:24;;;;;;;6.47;4.20;;;;;;;17.26;86.29;94594.88;5014298;28;20194;-85
2023/08/01 00:38:50;;;;;;;6.32;4.47;;;;;;;17.28;86.26;94583.16;5028554;28;20199;-85
2023/08/01 00:41:15;;;;;;;5.72;3.70;;;;;;;17.09;87.05;94576.22;5029577;28;20297;-85
2023/08/01 00:43:40;;;;;;;5.28;4.15;;;;;;;17.33;86.53;94581.72;5024270;28;20214;-85
2023/08/01 00:46:06;;;;;;;7.18;3.95;;;;;;;17.35;85.83;94570.00;5018698;28;20372;-86
2023/08/01 00:48:32;;;;;;;7.32;4.45;;;;;;;17.33;86.18;94565.97;5031016;28;20269;-84
2023/08/01 00:50:59;;;;;;;5.47;4.20;;;;;;;17.30;85.70;94564.56;5027650;28;20277;-85
2023/08/01 00:53:25;;;;;;;5.22;4.10;;;;;;;17.23;85.81;94562.00;5021774;28;20202;-84
2023/08/01 00:55:53;;;;;;;5.32;3.78;;;;;;;17.33;85.04;94556.28;5005645;28;20678;-85
2023/08/01 00:58:18;;;;;;;5.72;3.70;;;;;;;17.39;83.46;94572.97;5031075;28;20182;-85
2023/08/01 01:00:43;;;;;;;5.75;3.75;;;;;;;17.34;83.55;94584.13;5030978;28;20197;-85
2023/08/01 01:03:09;;;;;;;8.52;4.43;;;;;;;17.46;83.61;94587.66;5010297;28;20544;-85
2023/08/01 01:05:36;;;;;;;9.45;4.47;;;;;;;17.57;84.06;94580.91;5017616;28;20633;-85
2023/08/01 01:08:03;;;;;;;5.80;4.13;;;;;;;17.32;85.28;94574.88;5014829;28;20853;-85
2023/08/01 01:10:28;;;;;;;7.28;4.13;;;;;;;17.36;85.87;94576.84;4998248;28;20202;-87
2023/08/01 01:12:55;;;;;;;6.47;4.05;;;;;;;17.15;87.95;94575.38;5003140;28;20185;-85
2023/08/01 01:15:20;;;;;;;6.30;4.45;;;;;;;17.11;89.79;94571.56;5000320;28;20290;-85
2023/08/01 01:17:45;;;;;;;4.40;3.55;;;;;;;17.08;90.90;94571.97;5017818;28;20221;-85
2023/08/01 01:20:11;;;;;;;5.80;4.00;;;;;;;17.16;90.68;94579.59;5019018;28;20235;-85
2023/08/01 01:22:36;;;;;;;6.25;4.40;;;;;;;17.08;92.15;94569.34;5014010;28;20203;-85
2023/08/01 01:25:02;;;;;;;8.70;4.65;;;;;;;16.79;94.31;94564.69;5034929;28;20190;-85
2023/08/01 01:27:28;;;;;;;7.20;4.80;;;;;;;16.90;94.28;94564.03;5023695;28;20217;-85
2023/08/01 01:29:54;;;;;;;6.88;4.70;;;;;;;16.69;95.91;94562.50;5035017;28;20662;-85
2023/08/01 01:32:20;;;;;;;7.50;4.70;;;;;;;16.78;96.38;94560.44;5000193;28;20226;-84
2023/08/01 01:34:46;;;;;;;5.82;4.53;;;;;;;16.88;95.73;94537.22;5005394;28;20209;-84
2023/08/01 01:37:11;;;;;;;7.10;4.53;;;;;;;16.77;96.61;94525.56;5016311;28;20171;-84
2023/08/01 01:39:36;;;;;;;6.20;4.30;;;;;;;16.67;96.62;94514.69;5025673;28;20277;-84
2023/08/01 01:42:01;;;;;;;6.78;4.90;;;;;;;16.81;96.40;94515.47;5025972;28;20197;-85
2023/08/01 01:44:27;;;;;;;7.43;4.60;;;;;;;16.70;97.16;94502.03;5025778;28;20257;-84
2023/08/01 01:46:53;;;;;;;7.93;5.13;;;;;;;16.47;98.42;94504.31;5032629;28;20199;-84
2023/08/01 01:49:18;;;;;;;8.40;4.85;;;;;;;16.54;98.36;94499.84;5022488;28;20190;-85
2023/08/01 01:51:43;;;;;;;7.60;5.57;;;;;;;16.64;97.68;94504.63;5032268;28;20178;-84
2023/08/01 01:54:09;;;;;;;7.22;4.32;;;;;;;16.70;97.47;94509.88;5041220;28;20186;-86
2023/08/01 01:56:35;;;;;;;8.15;4.85;;;;;;;16.78;96.71;94505.38;5034327;28;20201;-84
2023/08/01 01:59:01;;;;;;;5.60;4.38;;;;;;;16.72;96.68;94514.91;5027835;28;20682;-85
2023/08/01 02:01:26;;;;;;;6.55;4.80;;;;;;;16.66;96.97;94506.03;5032791;28;20180;-85
2023/08/01 02:03:51;;;;;;;7.38;4.85;;;;;;;16.72;96.44;94508.88;5019414;28;20265;-86
2023/08/01 02:06:17;;;;;;;8.70;5.13;;;;;;;16.70;96.67;94503.84;5022468;28;20249;-85
2023/08/01 02:08:42;;;;;;;5.00;4.50;;;;;;;16.77;96.40;94506.41;5041500;28;20246;-85
2023/08/01 02:11:07;;;;;;;5.00;4.22;;;;;;;16.66;95.97;94507.84;5036412;28;20174;-86
2023/08/01 02:13:34;;;;;;;7.20;5.00;;;;;;;16.72;95.76;94508.88;5036518;28;20567;-85
2023/08/01 02:15:59;;;;;;;6.85;4.30;;;;;;;16.76;96.23;94517.91;5032070;28;20203;-85
2023/08/01 02:18:24;;;;;;;7.78;4.75;;;;;;;16.92;95.04;94507.72;5032716;28;20184;-85
2023/08/01 02:20:49;;;;;;;7.28;4.78;;;;;;;16.66;96.65;94497.38;5012717;28;20631;-85
2023/08/01 02:23:15;;;;;;;7.53;4.97;;;;;;;16.71;97.03;94484.47;5013061;28;20247;-85
2023/08/01 02:25:41;;;;;;;10.43;5.07;;;;;;;16.62;97.92;94476.03;5017418;28;20206;-84
2023/08/01 02:28:06;;;;;;;7.20;5.05;;;;;;;16.80;96.16;94474.53;5032635;28;20718;-85
2023/08/01 02:30:33;;;;;;;8.43;4.45;;;;;;;16.55;97.82;94479.69;5016262;28;20183;-85
2023/08/01 02:32:58;;;;;;;5.57;4.28;;;;;;;16.70;96.75;94467.94;5032599;28;20195;-84
2023/08/01 02:35:23;;;;;;;10.65;5.50;;;;;;;16.48;98.33;94466.63;5025444;28;20238;-84
2023/08/01 02:37:49;;;;;;;6.35;4.10;;;;;;;16.70;96.31;94465.31;5013331;28;20836;-87
2023/08/01 02:40:14;;;;;;;6.82;4.68;;;;;;;16.55;97.15;94463.97;5037111;28;20584;-85
2023/08/01 02:42:39;;;;;;;6.22;4.43;;;;;;;16.64;96.26;94455.63;5030773;28;20663;-85
2023/08/01 02:45:05;;;;;;;5.15;4.10;;;;;;;16.75;95.64;94463.88;5044517;28;20218;-85
2023/08/01 02:47:30;;;;;;;6.40;4.68;;;;;;;16.69;95.08;94473.38;5032450;28;20242;-85
2023/08/01 02:49:56;;;;;;;4.90;4.28;;;;;;;16.70;94.77;94475.81;5031016;28;20175;-86
2023/08/01 02:52:21;;;;;;;7.95;4.50;;;;;;;16.87;93.18;94483.13;5010934;28;20556;-85
2023/08/01 02:54:46;;;;;;;5.60;4.72;;;;;;;16.77;92.95;94460.00;5029046;28;20243;-86
2023/08/01 02:57:11;;;;;;;6.43;4.32;;;;;;;16.81;92.83;94474.31;5008347;28;20176;-85
2023/08/01 02:59:37;;;;;;;5.97;4.18;;;;;;;16.84;90.94;94458.16;5012988;28;20214;-85
2023/08/01 03:02:02;;;;;;;7.70;3.97;;;;;;;16.94;90.87;94468.16;4998724;28;20187;-85
2023/08/01 03:04:28;;;;;;;5.72;4.03;;;;;;;17.06;90.40;94466.47;5026461;28;20201;-85
2023/08/01 03:06:53;;;;;;;7.60;4.75;;;;;;;16.88;91.26;94455.94;5031500;28;20293;-84
2023/08/01 03:09:18;;;;;;;6.93;3.83;;;;;;;16.92;89.77;94457.09;5038983;28;20186;-87
2023/08/01 03:11:44;;;;;;;7.32;4.47;;;;;;;17.06;89.73;94453.38;5050285;28;20190;-85
2023/08/01 03:14:09;;;;;;;6.07;3.80;;;;;;;17.14;89.79;94463.59;5005166;28;20191;-88
2023/08/01 03:16:34;;;;;;;6.45;3.83;;;;;;;17.19;89.45;94466.38;5036238;28;20203;-85
2023/08/01 03:19:04;;;;;;;10.13;4.30;;;;;;;17.21;89.89;94456.44;5032746;28;20178;-83
2023/08/01 03:21:32;;;;;;;7.22;4.55;;;;;;;17.11;90.92;94474.50;5018034;28;20175;-86
2023/08/01 03:23:57;;;;;;;6.20;3.80;;;;;;;17.10;91.40;94451.91;5006531;28;20187;-87
2023/08/01 03:26:22;;;;;;;8.38;4.50;;;;;;;17.01;92.22;94457.63;5002160;28;20220;-87
2023/08/01 03:28:48;;;;;;;6.75;4.57;;;;;;;16.93;93.53;94463.94;5015047;28;20174;-86
2023/08/01 03:31:13;;;;;;;5.07;4.00;;;;;;;16.81;93.56;94457.78;5024744;28;20226;-87
2023/08/01 03:33:38;;;;;;;7.45;4.00;;;;;;;16.79;94.15;94465.06;5017803;28;20186;-86
2023/08/01 03:36:04;;;;;;;4.82;3.78;;;;;;;16.88;92.89;94464.59;5013159;28;20211;-85
2023/08/01 03:38:29;;;;;;;5.63;3.75;;;;;;;16.84;93.96;94467.84;5007272;28;20771;-85
2023/08/01 03:40:54;;;;;;;7.70;3.60;;;;;;;16.84;93.50;94467.84;5013633;28;20234;-85
2023/08/01 03:43:23;;;;;;;4.13;3.60;;;;;;;16.86;92.58;94458.75;5031681;28;20181;-85
2023/08/01 03:45:48;;;;;;;6.72;3.28;;;;;;;16.75;92.58;94459.44;5031474;28;20214;-85
2023/08/01 03:48:14;;;;;;;7.70;3.45;;;;;;;16.91;92.13;94439.75;5031882;28;20248;-85
2023/08/01 03:50:39;;;;;;;7.47;3.40;;;;;;;16.97;89.57;94441.53;5031693;28;20182;-87
2023/08/01 03:53:04;;;;;;;5.10;3.63;;;;;;;16.79;90.91;94410.00;5012235;28;20186;-85
2023/08/01 03:55:30;;;;;;;6.07;3.40;;;;;;;16.81;92.18;94382.56;5015123;28;20214;-85
2023/08/01 03:57:55;;;;;;;4.03;3.42;;;;;;;16.69;92.26;94326.59;5026114;28;20531;-86
2023/08/01 04:00:20;;;;;;;6.90;3.58;;;;;;;16.90;91.72;94320.97;5030311;28;20670;-86
2023/08/01 04:02:46;;;;;;;6.07;3.28;;;;;;;16.80;91.87;94314.63;5011479;28;20586;-86
2023/08/01 04:05:11;;;;;;;4.00;3.28;;;;;;;16.70;92.25;94308.03;5027786;28;20671;-85
2023/08/01 04:07:37;;;;;;;5.18;3.75;;;;;;;16.73;92.56;94314.66;5011450;28;20224;-86
2023/08/01 04:10:02;;;;;;;7.75;3.40;;;;;;;16.81;91.68;94300.50;5022894;28;20187;-86
2023/08/01 04:12:28;;;;;;;6.57;2.95;;;;;;;16.59;92.67;94298.22;4995621;28;20187;-86
2023/08/01 04:14:54;;;;;;;4.88;3.20;;;;;;;16.54;92.59;94269.25;4997210;28;20202;-85
2023/08/01 04:17:19;;;;;;;4.75;3.35;;;;;;;16.63;91.89;94270.56;5030381;28;20682;-85
2023/08/01 04:19:44;;;;;;;5.97;3.33;;;;;;;16.81;90.77;94259.34;5030527;28;20625;-85
2023/08/01 04:22:10;;;;;;;6.78;3.08;;;;;;;16.76;91.87;94251.31;5012472;28;20178;-86
2023/08/01 04:24:35;;;;;;;3.92;2.83;;;;;;;16.70;91.88;94233.84;5032875;28;20170;-85
2023/08/01 04:27:00;;;;;;;4.70;3.17;;;;;;;16.85;91.09;94230.84;5027140;28;20660;-85
2023/08/01 04:29:26;;;;;;;5.25;2.78;;;;;;;16.79;91.87;94244.84;5020121;28;20249;-86
2023/08/01 04:31:51;;;;;;;4.63;3.20;;;;;;;16.72;91.55;94251.97;5036001;28;20179;-86
2023/08/01 04:34:16;;;;;;;7.65;2.90;;;;;;;16.64;91.96;94253.03;5010979;28;20235;-85
2023/08/01 04:36:42;;;;;;;5.05;3.63;;;;;;;16.61;91.29;94285.72;5030444;28;20663;-86
2023/08/01 04:39:07;;;;;;;5.25;3.17;;;;;;;16.65;91.06;94283.44;5030315;28;20629;-85
2023/08/01 04:41:32;;;;;;;4.22;2.85;;;;;;;16.78;90.04;94338.41;5033251;28;20273;-86
2023/08/01 04:43:58;;;;;;;4.03;2.80;;;;;;;17.02;88.46;94383.19;5032633;28;20174;-86
2023/08/01 04:46:23;;;;;;;4.10;3.13;;;;;;;17.13;88.76;94401.63;5015095;28;20261;-86
2023/08/01 04:48:48;;;;;;;3.35;2.50;;;;;;;17.20;88.70;94396.34;5014865;28;20644;-86
2023/08/01 04:51:13;;;;;;;3.55;2.55;;;;;;;17.04;88.25;94405.53;5013243;28;20194;-86
2023/08/01 04:53:39;;;;;;;5.40;2.90;;;;;;;17.16;88.26;94388.09;5000685;28;20190;-86
2023/08/01 04:56:05;;;;;;;4.15;2.42;;;;;;;17.15;87.56;94380.47;4998562;28;20298;-85
2023/08/01 04:58:30;;;;;;;4.57;2.78;;;;;;;17.22;87.15;94363.59;5034489;28;20183;-86
2023/08/01 05:00:56;;;;;;;3.88;3.13;;;;;;;17.12;88.11;94379.03;5034660;28;20167;-86
2023/08/01 05:03:21;;;;;;;3.42;3.08;;;;;;;16.86;88.47;94369.59;5030606;28;20730;-85
2023/08/01 05:05:46;;;;;;;6.82;2.92;;;;;;;17.14;86.95;94358.69;5018705;28;20605;-85
2023/08/01 05:08:11;;;;;;;4.55;2.90;;;;;;;17.20;86.51;94363.03;5017706;28;20236;-86
2023/08/01 05:10:37;;;;;;;4.43;3.33;;;;;;;17.27;85.75;94353.28;5024575;28;20187;-87
2023/08/01 05:13:02;;;;;;;4.32;2.63;;;;;;;17.20;85.05;94342.03;5024272;28;20582;-86
2023/08/01 05:15:28;;;;;;;3.65;2.70;;;;;;;17.30;84.21;94338.13;5014001;28;20211;-86
2023/08/01 05:17:53;;;;;;;5.47;2.97;;;;;;;17.20;84.61;94336.78;5015983;28;20206;-86
2023/08/01 05:20:19;;;;;;;4.13;3.17;;;;;;;17.23;84.17;94339.00;5023736;28;20237;-86
2023/08/01 05:22:44;;;;;;;4.13;3.00;;;;;;;17.18;84.39;94336.22;5031656;28;20605;-86
2023/08/01 05:25:09;;;;;;;4.20;3.42;;;;;;;17.08;84.62;94333.31;5013897;28;20909;-86
2023/08/01 05:27:35;;;;;;;4.53;3.28;;;;;;;17.17;84.35;94329.38;5021415;28;20207;-86
2023/08/01 05:30:00;;;;;;;7.00;3.95;;;;;;;17.21;83.31;94337.59;5022945;28;20194;-87
2023/08/01 05:32:25;;;;;;;6.25;3.97;;;;;;;17.30;83.38;94333.66;5029723;28;20190;-87
2023/08/01 05:34:51;;;;;;;5.47;4.20;;;;;;;17.37;83.68;94338.84;5039717;28;20202;-87
2023/08/01 05:37:16;;;;;;;5.53;3.97;;;;;;;17.43;82.40;94338.00;5009934;28;20191;-86
2023/08/01 05:39:41;;;;;;;4.45;3.60;;;;;;;17.67;81.50;94336.28;5025423;28;20210;-86
2023/08/01 05:42:08;;;;;;;7.47;4.10;;;;;;;17.44;80.38;94336.97;5040412;28;20290;-85
2023/08/01 05:44:34;;;;;;;5.72;3.90;;;;;;;17.73;79.57;94338.84;5014227;28;20199;-86
2023/08/01 05:46:59;;;;;;;6.10;4.10;;;;;;;17.84;79.48;94337.31;5014839;28;20207;-86
2023/08/01 05:49:25;;;;;;;4.75;4.03;;;;;;;17.85;79.92;94344.19;5018838;28;20277;-85
2023/08/01 05:51:50;;;;;;;6.07;3.95;;;;;;;17.63;80.86;94340.38;5011662;28;20655;-85
2023/08/01 05:54:15;;;;;;;8.00;3.83;;;;;;;17.61;80.32;94347.69;5025482;28;20651;-87
2023/08/01 05:56:40;;;;;;;5.38;4.03;;;;;;;17.60;80.74;94372.31;5016940;28;20244;-85
2023/08/01 05:59:06;;;;;;;4.10;3.60;;;;;;;17.52;82.54;94361.09;5017400;28;20190;-86
2023/08/01 06:01:31;;;;;;;4.85;4.00;;;;;;;17.54;82.46;94361.66;5027161;28;20198;-87
2023/08/01 06:03:57;;;;;;;5.50;3.70;;;;;;;17.30;83.62;94365.16;5033767;28;20193;-86
2023/08/01 06:06:22;;;;;;;5.97;3.88;;;;;;;17.40;83.51;94377.75;5015452;28;20226;-87
2023/08/01 06:08:47;;;;;;;5.25;4.10;;;;;;;17.07;84.74;94386.78;4997352;28;20179;-87
2023/08/01 06:11:13;;;;;;;5.38;3.67;;;;;;;17.04;85.89;94392.44;5016816;28;20571;-86
2023/08/01 06:13:38;;;;;;;6.57;4.25;;;;;;;16.65;89.53;94364.72;4998883;28;20192;-86
2023/08/01 06:16:03;;;;;;;6.72;4.22;;;;;;;16.66;91.13;94371.53;5002348;28;20265;-85
2023/08/01 06:18:29;;;;;;;6.32;3.90;;;;;;;16.53;92.92;94377.69;5034610;28;20178;-86
2023/08/01 06:20:54;;;;;;;5.68;4.30;;;;;;;16.59;92.56;94394.38;5017228;28;20175;-87
2023/08/01 06:23:19;;;;;;;6.47;4.38;;;;;;;16.60;92.74;94399.41;5003148;28;20278;-87
2023/08/01 06:25:45;;;;;;;6.72;4.20;;;;;;;16.49;93.98;94388.81;4996494;28;20206;-86
2023/08/01 06:28:10;;;;;;;8.88;4.72;;;;;;;16.52;93.47;94372.66;5010089;28;20207;-85
2023/08/01 06:30:35;;;;;;;5.10;4.43;;;;;;;16.20;95.65;94383.16;5028110;28;20209;-87
2023/08/01 06:33:01;;;;;;;5.35;4.57;;;;;;;16.51;94.13;94392.81;5033215;28;20197;-86
2023/08/01 06:35:26;;;;;;;6.82;5.03;;;;;;;16.33;95.71;94377.00;5024666;28;20711;-86
2023/08/01 06:37:51;;;;;;;6.65;4.25;;;;;;;16.37;95.69;94362.50;5024795;28;20245;-86
2023/08/01 06:40:16;;;;;;;8.20;5.38;;;;;;;16.24;97.56;94368.59;5032774;28;20712;-83
2023/08/01 06:42:42;;;;;;;5.68;4.78;;;;;;;16.23;97.77;94348.66;5025391;28;20644;-86
2023/08/01 06:45:08;;;;;;;6.22;4.13;;;;;;;16.51;96.18;94348.25;5007031;28;20618;-85
2023/08/01 06:47:33;;;;;;;6.28;4.70;;;;;;;16.36;97.52;94345.97;5026505;28;20206;-86
2023/08/01 06:49:58;;;;;;;5.55;4.55;;;;;;;16.62;96.79;94355.47;5030107;28;20183;-86
2023/08/01 06:52:24;;;;;;;7.00;4.45;;;;;;;16.62;96.63;94355.47;5018266;28;20664;-86
2023/08/01 06:54:49;;;;;;;6.15;4.60;;;;;;;16.51;97.56;94353.50;5035783;28;20206;-87
2023/08/01 06:57:14;;;;;;;5.60;4.60;;;;;;;16.75;97.03;94348.53;5016070;28;20235;-86
2023/08/01 06:59:40;;;;;;;5.00;4.13;;;;;;;16.69;96.04;94356.22;5022589;28;20194;-86
2023/08/01 07:02:06;;;;;;;6.03;4.30;;;;;;;16.68;97.21;94352.00;5020424;28;20191;-85
2023/08/01 07:04:32;;;;;;;8.07;4.70;;;;;;;16.60;96.74;94362.72;4996324;28;20729;-85
2023/08/01 07:06:57;;;;;;;7.22;4.88;;;;;;;16.43;98.53;94366.88;5019171;28;20203;-85
2023/08/01 07:09:22;;;;;;;6.45;4.53;;;;;;;16.21;100.00;94376.09;5023972;28;20182;-85
2023/08/01 07:11:48;;;;;;;5.82;4.07;;;;;;;16.34;99.08;94374.19;5023269;28;20213;-85
2023/08/01 07:14:13;;;;;;;6.53;4.50;;;;;;;16.11;100.00;94358.22;5003610;28;20182;-85
2023/08/01 07:16:38;;;;;;;5.30;4.30;;;;;;;16.21;99.80;94363.00;5019508;28;20690;-85
2023/08/01 07:19:15;;;;;;;5.70;4.50;;;;;;;16.29;98.65;94363.53;5013129;28;20924;-85
2023/08/01 07:21:49;;;;;;;5.00;3.92;;;;;;;16.00;100.00;94361.50;5001722;28;20213;-83
2023/08/01 07:24:14;;;;;;;5.30;4.10;;;;;;;15.99;100.00;94352.84;5035529;28;20185;-85
2023/08/01 07:26:40;;;;;;;5.35;3.83;;;;;;;16.22;100.00;94361.97;5022174;28;20281;-85
2023/08/01 07:29:08;;;;;;;6.72;4.10;;;;;;;16.00;100.00;94356.28;5016425;28;20183;-85
2023/08/01 07:31:33;;;;;;;6.20;3.75;;;;;;;16.30;100.00;94362.53;5005569;28;20200;-84
2023/08/01 07:33:59;;;;;;;6.07;3.70;;;;;;;16.24;100.00;94365.19;5020432;28;20186;-84
2023/08/01 07:36:24;;;;;;;4.30;3.50;;;;;;;16.17;100.00;94362.63;5001564;28;20207;-85
2023/08/01 07:38:49;;;;;;;3.80;3.17;;;;;;;16.43;100.00;94364.25;5002100;28;20569;-85
2023/08/01 07:41:14;;;;;;;3.47;3.17;;;;;;;16.42;100.00;94360.03;5005205;28;20189;-86
2023/08/01 07:43:40;;;;;;;4.15;2.72;;;;;;;16.34;100.00;94345.38;5010982;28;20252;-85
2023/08/01 07:46:05;;;;;;;2.85;2.45;;;;;;;16.82;98.40;94367.63;4995051;28;20216;-85
2023/08/01 07:48:31;;;;;;;3.05;2.65;;;;;;;16.85;97.85;94372.44;4996504;28;20218;-85
2023/08/01 07:50:56;;;;;;;3.25;2.70;;;;;;;16.96;97.96;94364.69;5013336;28;20187;-86
2023/08/01 07:53:21;;;;;;;2.65;2.20;;;;;;;16.51;99.51;94364.00;5000666;28;20167;-85
2023/08/01 07:55:47;;;;;;;2.42;2.17;;;;;;;16.54;100.00;94374.06;5017072;28;20203;-87
2023/08/01 07:58:12;;;;;;;2.53;2.00;;;;;;;16.46;100.00;94374.31;5020386;28;20270;-86
2023/08/01 08:00:37;;;;;;;2.70;1.95;;;;;;;16.68;100.00;94378.19;5002780;28;20218;-85
2023/08/01 08:03:05;;;;;;;2.50;1.80;;;;;;;16.89;99.86;94378.88;5007961;28;20178;-82
2023/08/01 08:05:31;;;;;;;1.60;1.50;;;;;;;16.71;99.40;94377.00;5030688;28;20199;-83
2023/08/01 08:07:56;;;;;;;1.73;1.63;;;;;;;17.01;98.64;94371.09;5045551;28;20685;-87
2023/08/01 08:10:21;;;;;;;2.05;1.85;;;;;;;16.93;99.40;94377.41;5029801;28;20212;-86
2023/08/01 08:12:46;;;;;;;1.92;1.60;;;;;;;16.98;98.01;94380.19;5017935;28;20226;-86
2023/08/01 08:15:13;;;;;;;1.40;1.30;;;;;;;17.34;96.95;94368.16;5020514;28;20205;-86
2023/08/01 08:17:38;;;;;;;1.40;1.30;;;;;;;17.29;96.94;94366.19;5008316;28;20178;-86
2023/08/01 08:20:06;;;;;;;1.33;1.23;;;;;;;17.45;95.39;94362.19;5040089;28;20675;-81
2023/08/01 08:22:31;;;;;;;1.75;1.30;;;;;;;18.05;93.55;94364.94;5002112;28;20557;-81
2023/08/01 08:24:56;;;;;;;1.23;1.13;;;;;;;17.80;93.44;94372.91;5015390;28;20238;-81
2023/08/01 08:27:22;;;;;;;1.88;1.25;;;;;;;17.87;93.18;94375.47;5018150;28;20226;-80
2023/08/01 08:29:47;;;;;;;1.10;1.00;;;;;;;17.57;94.83;94368.28;5031257;28;20185;-82
2023/08/01 08:32:12;;;;;;;1.20;1.00;;;;;;;17.42;95.20;94376.56;5011609;28;20208;-82
2023/08/01 08:34:39;;;;;;;1.38;0.95;;;;;;;17.88;94.27;94382.31;5001904;28;20644;-81
2023/08/01 08:37:05;;;;;;;1.10;0.77;;;;;;;17.95;92.53;94381.22;5023045;28;20237;-81
2023/08/01 08:39:30;;;;;;;2.97;0.93;;;;;;;18.40;91.69;94384.25;5037438;28;20187;-81
2023/08/01 08:41:55;;;;;;;0.70;0.70;;;;;;;18.61;90.46;94390.81;5000797;28;20280;-83
2023/08/01 08:44:21;;;;;;;0.70;0.70;;;;;;;18.65;89.29;94394.66;5014344;28;20207;-82
2023/08/01 08:46:50;;;;;;;0.70;0.70;;;;;;;18.55;88.93;94397.00;5014709;28;20206;-83
2023/08/01 08:49:16;;;;;;;0.70;0.70;;;;;;;18.01;90.74;94396.09;5044988;28;20281;-82
2023/08/01 08:51:42;;;;;;;1.40;0.60;;;;;;;17.98;92.19;94398.34;5010488;28;20244;-82
2023/08/01 08:54:08;;;;;;;1.45;0.73;;;;;;;18.05;91.99;94396.47;5008148;28;20280;-82
2023/08/01 08:56:34;;;;;;;1.30;1.20;;;;;;;18.19;92.00;94395.25;5020467;28;20234;-83
2023/08/01 08:58:59;;;;;;;0.80;0.80;;;;;;;18.36;91.41;94405.94;5051353;28;20178;-83
2023/08/01 09:01:25;;;;;;;0.60;0.60;;;;;;;18.14;91.96;94408.25;5007403;28;20187;-83
2023/08/01 09:03:52;;;;;;;0.55;0.55;;;;;;;18.17;91.23;94410.44;5020391;28;20343;-82
2023/08/01 09:06:21;;;;;;;0.50;0.50;;;;;;;18.34;90.94;94410.63;5009369;28;20252;-83
2023/08/01 09:08:52;;;;;;;1.40;0.60;;;;;;;18.45;89.82;94414.31;5015809;28;20646;-82
2023/08/01 09:11:18;;;;;;;1.15;0.40;;;;;;;18.33;90.38;94409.81;5012279;28;20218;-83
2023/08/01 09:13:43;;;;;;;0.40;0.40;;;;;;;18.24;89.92;94413.00;5060214;28;20265;-83
2023/08/01 09:16:09;;;;;;;0.52;0.47;;;;;;;18.27;89.72;94418.59;5023299;28;20205;-82
2023/08/01 09:18:35;;;;;;;0.40;0.40;;;;;;;18.71;88.07;94415.78;5005714;28;20178;-82
2023/08/01 09:21:04;;;;;;;0.50;0.50;;;;;;;19.00;86.80;94424.69;5003403;28;20281;-83
2023/08/01 09:23:30;;;;;;;0.57;0.30;;;;;;;18.80;86.12;94415.25;5021414;28;20209;-83
2023/08/01 09:25:56;;;;;;;0.40;0.40;;;;;;;19.08;86.22;94437.47;5054447;28;20193;-83
2023/08/01 09:28:23;;;;;;;0.43;0.43;;;;;;;19.26;85.80;94445.31;5003481;28;20214;-82
2023/08/01 09:30:54;;;;;;;0.40;0.40;;;;;;;19.37;82.98;94457.66;5029489;28;20192;-83
2023/08/01 09:33:19;;;;;;;0.60;0.30;;;;;;;19.35;83.06;94449.19;5011814;28;20193;-83
2023/08/01 09:35:45;;;;;;;0.45;0.40;;;;;;;19.77;81.31;94446.44;5008405;28;20198;-83
2023/08/01 09:38:15;;;;;;;0.32;0.32;;;;;;;19.53;79.65;94449.09;5053790;28;20180;-83
2023/08/01 09:41:08;;;;;;;0.50;0.45;;;;;;;19.79;78.58;94445.22;5005052;28;20843;-87
2023/08/01 09:49:31;;;;;;;0.40;0.40;;;;;;;19.93;79.18;94451.00;4986424;23;20602;-86
2023/08/01 09:51:57;;;;;;;0.80;0.70;;;;;;;19.72;79.35;94462.16;4944110;28;20193;-85
2023/08/01 09:54:23;;;;;;;1.48;0.60;;;;;;;19.12;79.73;94462.31;4944395;28;20926;-86
2023/08/01 09:56:50;;;;;;;0.50;0.50;;;;;;;18.98;80.78;94474.06;4950757;28;20279;-86
2023/08/01 09:59:24;;;;;;;0.98;0.70;;;;;;;18.61;80.77;94453.13;4932495;28;20208;-88
2023/08/01 10:01:51;;;;;;;0.50;0.50;;;;;;;18.98;79.15;94459.09;4966571;28;20278;-87
2023/08/01 10:04:21;;;;;;;0.65;0.65;;;;;;;19.19;77.51;94463.81;4947612;28;20268;-86
2023/08/01 10:06:51;;;;;;;1.23;0.73;;;;;;;18.99;76.59;94475.66;4943057;28;20212;-86
2023/08/01 10:09:17;;;;;;;0.80;0.77;;;;;;;19.44;75.50;94476.00;4946967;28;20188;-86
2023/08/01 10:11:43;;;;;;;0.50;0.50;;;;;;;20.08;72.38;94474.25;4945513;28;20650;-87
2023/08/01 10:14:09;;;;;;;1.00;0.65;;;;;;;20.15;70.27;94468.84;4947560;28;20188;-87
2023/08/01 10:16:36;;;;;;;1.15;0.82;;;;;;;20.08;71.37;94472.41;4941985;28;20193;-87
2023/08/01 10:19:02;;;;;;;1.77;0.80;;;;;;;20.52;69.64;94475.41;4964407;28;20666;-87
2023/08/01 10:21:28;;;;;;;0.82;0.70;;;;;;;20.59;67.18;94477.94;4945135;28;20172;-84
2023/08/01 10:23:55;;;;;;;0.88;0.75;;;;;;;21.03;66.46;94483.47;4949184;28;20239;-84
2023/08/01 10:26:20;;;;;;;2.78;0.70;;;;;;;21.62;64.29;94487.31;4950356;28;20279;-84
2023/08/01 10:28:51;;;;;;;0.80;0.80;;;;;;;21.44;66.08;94479.66;4951382;28;20722;-83
2023/08/01 10:31:18;;;;;;;0.85;0.82;;;;;;;20.44;66.32;94488.16;4969831;28;20184;-86
2023/08/01 10:33:46;;;;;;;1.50;0.98;;;;;;;20.07;67.00;94480.56;4984651;28;20200;-84
2023/08/01 10:36:22;;;;;;;0.90;0.90;;;;;;;19.96;67.79;94497.97;4981126;28;20196;-86
2023/08/01 10:38:49;;;;;;;1.33;0.90;;;;;;;20.62;67.12;94493.28;4974051;28;20216;-83
2023/08/01 10:41:34;;;;;;;1.50;1.20;;;;;;;20.31;67.54;94490.00;4983787;28;20193;-84
2023/08/01 10:44:10;;;;;;;1.10;0.93;;;;;;;20.26;67.74;94486.47;4951012;28;20267;-84
2023/08/01 10:46:55;;;;;;;0.85;0.85;;;;;;;20.41;67.17;94481.50;4952787;28;20577;-85
2023/08/01 10:49:38;;;;;;;1.23;0.90;;;;;;;19.77;68.44;94496.50;4966470;28;20240;-86
2023/08/01 10:52:41;;;;;;;0.90;0.90;;;;;;;20.06;66.86;94492.94;4982111;28;20190;-85
2023/08/01 10:55:06;;;;;;;1.67;1.30;;;;;;;20.54;66.59;94494.44;4962947;28;20208;-85
2023/08/01 10:57:48;;;;;;;1.58;0.95;;;;;;;21.21;64.35;94499.88;4953177;28;20546;-82
2023/08/01 11:00:15;;;;;;;1.95;1.10;;;;;;;21.43;64.57;94492.06;4954230;28;20182;-83
2023/08/01 11:02:41;;;;;;;1.20;1.10;;;;;;;21.42;61.36;94489.66;4966986;28;20549;-83
2023/08/01 11:05:07;;;;;;;1.23;1.00;;;;;;;21.76;60.68;94501.81;4963135;28;20204;-80
2023/08/01 11:07:33;;;;;;;2.58;1.17;;;;;;;21.59;59.17;94489.66;4968382;28;20208;-82
2023/08/01 11:10:07;;;;;;;2.15;1.30;;;;;;;21.36;58.37;94507.25;4958257;28;20650;-83
2023/08/01 11:12:43;;;;;;;1.60;1.20;;;;;;;21.25;59.25;94502.03;4942489;28;20632;-81
2023/08/01 11:15:12;;;;;;;1.30;1.20;;;;;;;21.52;59.68;94500.38;4965510;28;20284;-84
2023/08/01 11:17:39;;;;;;;2.03;1.20;;;;;;;21.17;59.60;94506.66;4948356;28;20225;-82
2023/08/01 11:20:05;;;;;;;1.92;1.17;;;;;;;20.91;61.22;94500.13;4950003;28;20184;-82
2023/08/01 11:22:31;;;;;;;1.40;1.30;;;;;;;20.97;61.56;94508.16;4966018;28;20187;-82
2023/08/01 11:24:57;;;;;;;2.10;1.27;;;;;;;21.12;61.97;94517.16;4955098;28;20203;-81
2023/08/01 11:27:22;;;;;;;2.50;1.30;;;;;;;20.91;62.73;94501.97;4943166;28;20197;-80
2023/08/01 11:29:47;;;;;;;1.55;1.30;;;;;;;21.30;62.16;94510.06;4957514;28;20192;-83
2023/08/01 11:32:13;;;;;;;3.08;1.30;;;;;;;21.82;60.13;94515.09;4954937;28;20180;-83
2023/08/01 11:34:44;;;;;;;3.47;1.10;;;;;;;21.85;59.44;94514.63;4948048;28;20220;-82